DIRECCIÓN GENERAL DE AERONÁUTICA CIVIL
DIRECCIÓN METEOROLÓGICA DE CHILE
INFORMACIÓN METAR Y TAF

FIR PUERTO MONTT

Estación: SCQP
METAR SCQP 200100Z 11002KT 9999 FEW035 BKN045 10/08 Q1023=

TAF SCQP 192216Z 2000/2024 27005KT 9999 FEW025 BKN030 TN08/2010Z TX17 /2018Z BECMG 2002/2004 VRB03KT BKN040 BECMG 2010/2012 SCT040 BECMG 2014/2016 35010KT BECMG 2016/2018 SCT050 BKN100 BECMG 2022/2024 BKN035 BKN100=

Estación: SCVD
METAR SCVD 200100Z AUTO 36002KT 9999 FEW026 OVC033 11/09 Q1023=

TAF SCVD 191634Z 1918/2006 30008KT 9999 SCT015 BKN025 TX14/1918Z TN10 /2006Z TEMPO 1918/1924 5000 -SHRA BKN010 BKN020 BECMG 2000/2002 01005KT BKN030=

Estación: SCJO
METAR SCJO 192200Z 27004KT 9999 BKN030 13/09 Q1020=

TAF SCJO 191635Z 1918/2006 31010KT 9999 BKN020 TX14/1918Z TN10/2006Z TEMPO 1918/1924 5000 -SHRA BKN015 OVC020 BECMG 2000/2002 34005KT BKN030=

Estación: SCTE
METAR SCTE 200100Z 35004KT 9999 BKN050 10/09 Q1022 NOSIG=

TAF SCTE 192218Z 2000/2024 VRB03KT 9999 SCT015 BKN040 TN08/2010Z TX14 /2018ZBECMG 2006/2008 BKN025 BKN060 BECMG 2012/2014 01010KT BECMG 2218/2220 36010G20KT BKN020 BKN080=

Estación: SCPQ
METAR SCPQ 200200Z AUTO 35010KT //// R35/P2000N SCT002 OVC040 10/09 Q1020=

TAF SCPQ 191646Z 1918/2006 30010KT 9999 SCT017 BKN045 TX13/1918Z TN10 /2006Z BECMG 2000/2002 35007KT BKN030=

Estación: SCON
METAR SCON 200100Z AUTO 00000KT 9999 ///017 11/10 Q1019=

TAF SCON 191637Z 1918/2006 32005KT CAVOK TX14/1918Z TN10/2006Z TEMPO 1918/1924 BKN040 BECMG 2000/2002 35010KT=

Estación: SCTN
METAR SCTN NIL=

TAF SCTN NIL=

Estación: SCFT
METAR SCFT 200100Z AUTO VRB02KT CAVOK 07/05 Q1019=

TAF SCFT NIL=

Estación: SCAP
METAR SCAP 172000Z 22013G24KT 170V260 CAVOK 15/M01 Q1017=

TAF SCAP NIL=

Estación: SCMK
METAR SCMK 192100Z 27006KT 9999 FEW015 BKN040 12/08 Q1016=

TAF SCMK 191630Z 1918/2006 30005KT 9999 OVC012 TX13/1918Z TN10/2006Z TEMPO 2018/2024 BKN015 OVC025 BECMG 2000/2002 35010KT BKN020 BKN050=

Estación: SCAS
METAR SCAS 171500Z 25012KT 7000 -SHRA FEW033 BKN036 09/05 Q1013=

TAF SCAS NIL=

Estación: SCCY
METAR SCCY 200000Z 00000KT 9000 -SHRA SCT026 OVC033 04/02 Q1020=

TAF SCCY 191630Z 1918/2006 21005KT 9999 BKN015 OVC020 TX04/1918Z TN02 /2006Z TEMPO 1918/2006 5000 -RA BKN010 OVC015 BECMG 2000/2002 VRB03KT=

Estación: SCBA
METAR SCBA 200100Z AUTO 13006KT 9999 SCT050 OVC083 01/M01 Q1021=

TAF SCBA 192219Z 2000/2024 10007KT 9999 BKN030 BKN050 TNM02/2008Z TX05/2018Z BECMG 2004/2006 VRB03KT BECMG 2013/2015 35010KT BECMG 2016/2018 BKN060=

Estación: SCCC
METAR SCCC 192200Z AUTO /////KT ///V/// 9999 FEW016 BKN025 03/01 Q1021=

TAF SCCC CECF 7687=

Estación: SCHR
METAR SCHR 192200Z AUTO VRB02KT 9999 BKN042 08/02 Q1015=

TAF SCHR 171046Z 1712/1800 30012KT 9999 SCT020 TN01/1712Z TX13/1718Z BECMG 1719/1721 32015KT TEMPO 1721/1800 8000 -SHRA BKN018=


Volver